createdAt,value
2022-11-08T00:00:05.256Z,3.30
2022-11-08T00:02:32.126Z,2.50
2022-11-08T00:04:58.784Z,2.85
2022-11-08T00:07:44.180Z,2.80
2022-11-08T00:10:29.453Z,2.33
2022-11-08T00:13:14.861Z,2.70
2022-11-08T00:15:41.393Z,2.73
2022-11-08T00:18:08.472Z,2.30
2022-11-08T00:20:41.489Z,2.33
2022-11-08T00:23:08.052Z,2.75
2022-11-08T00:25:34.577Z,2.40
2022-11-08T00:28:02.873Z,3.13
2022-11-08T00:30:30.143Z,2.38
2022-11-08T00:33:01.770Z,3.40
2022-11-08T00:35:28.445Z,2.85
2022-11-08T00:37:54.931Z,2.45
2022-11-08T00:40:21.386Z,2.95
2022-11-08T00:42:49.648Z,2.42
2022-11-08T00:45:16.454Z,2.88
2022-11-08T00:47:42.962Z,3.60
2022-11-08T00:50:11.715Z,3.35
2022-11-08T00:52:38.279Z,4.18
2022-11-08T00:55:05.260Z,3.53
2022-11-08T00:57:47.280Z,3.35
2022-11-08T01:00:20.875Z,3.97
2022-11-08T01:03:12.295Z,3.35
2022-11-08T01:05:38.822Z,3.00
2022-11-08T01:08:05.367Z,3.80
2022-11-08T01:10:32.338Z,3.88
2022-11-08T01:12:58.887Z,3.80
2022-11-08T01:15:25.941Z,4.00
2022-11-08T01:17:52.953Z,3.88
2022-11-08T01:20:19.679Z,3.97
2022-11-08T01:22:46.187Z,3.92
2022-11-08T01:27:52.067Z,3.90
2022-11-08T01:30:27.266Z,3.60
2022-11-08T01:32:53.934Z,4.55
2022-11-08T01:35:20.478Z,3.83
2022-11-08T01:37:47.273Z,4.35
2022-11-08T01:40:14.046Z,4.18
2022-11-08T01:42:40.549Z,4.15
2022-11-08T01:45:13.722Z,4.60
2022-11-08T01:47:40.248Z,4.55
2022-11-08T01:50:14.550Z,4.45
2022-11-08T01:52:45.752Z,4.47
2022-11-08T01:55:28.252Z,4.53
2022-11-08T01:58:07.609Z,4.55
2022-11-08T02:00:37.527Z,4.28
2022-11-08T02:03:07.239Z,4.28
2022-11-08T02:05:34.104Z,4.97
2022-11-08T02:08:07.056Z,4.60
2022-11-08T02:10:37.281Z,4.47
2022-11-08T02:13:07.746Z,4.80
2022-11-08T02:15:36.741Z,4.03
2022-11-08T02:18:03.426Z,4.70
2022-11-08T02:20:30.688Z,4.10
2022-11-08T02:23:05.282Z,4.35
2022-11-08T02:25:31.864Z,4.15
2022-11-08T02:27:58.343Z,4.35
2022-11-08T02:30:26.590Z,4.72
2022-11-08T02:32:56.455Z,4.43
2022-11-08T02:35:23.537Z,4.50
2022-11-08T02:37:50.813Z,4.72
2022-11-08T02:40:17.385Z,5.00
2022-11-08T02:42:45.741Z,4.85
2022-11-08T02:45:14.531Z,5.35
2022-11-08T02:47:41.051Z,4.72
2022-11-08T02:50:08.004Z,4.85
2022-11-08T02:52:34.702Z,4.82
2022-11-08T02:55:01.585Z,5.18
2022-11-08T02:57:28.068Z,4.95
2022-11-08T02:59:54.705Z,4.47
2022-11-08T03:02:27.030Z,4.80
2022-11-08T03:07:35.089Z,4.60
2022-11-08T03:10:04.088Z,5.03
2022-11-08T03:12:30.553Z,5.07
2022-11-08T03:15:01.673Z,4.95
2022-11-08T03:17:28.173Z,4.90
2022-11-08T03:19:54.745Z,5.10
2022-11-08T03:22:23.417Z,5.35
2022-11-08T03:24:50.191Z,4.93
2022-11-08T03:27:20.730Z,5.32
2022-11-08T03:29:48.054Z,5.10
2022-11-08T03:32:16.015Z,5.38
2022-11-08T03:34:42.896Z,5.25
2022-11-08T03:37:17.990Z,5.45
2022-11-08T03:39:44.636Z,5.28
2022-11-08T03:42:11.122Z,5.40
2022-11-08T03:44:39.349Z,5.18
2022-11-08T03:47:07.544Z,5.10
2022-11-08T03:49:34.145Z,4.90
2022-11-08T03:52:00.906Z,4.80
2022-11-08T03:54:27.376Z,5.43
2022-11-08T03:56:54.215Z,4.75
2022-11-08T03:59:22.786Z,4.50
2022-11-08T04:01:49.513Z,5.00
2022-11-08T04:04:16.298Z,4.93
2022-11-08T04:06:42.905Z,4.80
2022-11-08T04:09:11.792Z,4.97
2022-11-08T04:11:57.032Z,4.68
2022-11-08T04:14:42.502Z,4.78
2022-11-08T04:17:10.807Z,5.70
2022-11-08T04:19:55.868Z,5.40
2022-11-08T04:22:22.399Z,5.70
2022-11-08T04:24:48.869Z,5.65
2022-11-08T04:27:15.520Z,5.13
2022-11-08T04:29:47.273Z,5.25
2022-11-08T04:32:13.799Z,5.43
2022-11-08T04:34:40.279Z,5.47
2022-11-08T04:37:06.887Z,5.60
2022-11-08T04:39:33.350Z,5.40
2022-11-08T04:42:02.353Z,5.68
2022-11-08T04:44:33.634Z,4.97
2022-11-08T04:47:00.160Z,5.15
2022-11-08T04:49:26.656Z,5.68
2022-11-08T04:51:53.253Z,5.25
2022-11-08T04:54:19.869Z,5.10
2022-11-08T04:56:49.845Z,5.80
2022-11-08T04:59:16.526Z,5.75
2022-11-08T05:01:43.109Z,5.90
2022-11-08T05:04:09.977Z,5.75
2022-11-08T05:06:36.578Z,5.65
2022-11-08T05:09:03.272Z,5.57
2022-11-08T05:11:30.675Z,5.93
2022-11-08T05:13:57.535Z,5.82
2022-11-08T05:16:27.513Z,5.63
2022-11-08T05:18:54.545Z,5.20
2022-11-08T05:21:41.694Z,5.05
2022-11-08T05:24:11.437Z,5.38
2022-11-08T05:26:39.391Z,5.97
2022-11-08T05:29:06.357Z,5.65
2022-11-08T05:31:33.009Z,6.00
2022-11-08T05:34:02.767Z,5.35
2022-11-08T05:36:29.908Z,6.25
2022-11-08T05:38:56.567Z,5.78
2022-11-08T05:41:25.407Z,5.57
2022-11-08T05:43:56.607Z,5.65
2022-11-08T05:46:25.891Z,5.18
2022-11-08T05:48:52.787Z,6.22
2022-11-08T05:51:27.829Z,5.22
2022-11-08T05:53:54.314Z,5.85
2022-11-08T05:56:20.800Z,5.88
2022-11-08T05:58:47.540Z,5.88
2022-11-08T06:01:19.663Z,5.30
2022-11-08T06:03:52.608Z,5.32
2022-11-08T06:06:21.251Z,6.00
2022-11-08T06:08:50.560Z,6.38
2022-11-08T06:11:31.516Z,5.63
2022-11-08T06:13:58.419Z,5.68
2022-11-08T06:16:25.524Z,5.43
2022-11-08T06:18:56.956Z,6.32
2022-11-08T06:21:23.586Z,5.97
2022-11-08T06:23:54.747Z,6.20
2022-11-08T06:26:24.671Z,5.95
2022-11-08T06:28:51.229Z,5.38
2022-11-08T06:31:17.721Z,5.78
2022-11-08T06:33:45.111Z,5.78
2022-11-08T06:36:11.917Z,5.72
2022-11-08T06:38:38.386Z,5.70
2022-11-08T06:41:05.417Z,5.40
2022-11-08T06:43:34.120Z,5.00
2022-11-08T06:46:02.358Z,5.32
2022-11-08T06:48:35.526Z,5.38
2022-11-08T06:51:03.295Z,5.10
2022-11-08T06:53:29.783Z,5.10
2022-11-08T06:55:56.296Z,5.25
2022-11-08T06:58:22.754Z,5.60
2022-11-08T07:00:49.546Z,5.30
2022-11-08T07:03:21.675Z,4.30
2022-11-08T07:05:48.423Z,4.00
2022-11-08T07:08:15.369Z,4.32
2022-11-08T07:10:44.892Z,4.40
2022-11-08T07:13:13.533Z,4.80
2022-11-08T07:15:41.178Z,4.20
2022-11-08T07:18:13.283Z,5.18
2022-11-08T07:20:40.477Z,4.13
2022-11-08T07:23:07.210Z,5.35
2022-11-08T07:25:36.405Z,5.70
2022-11-08T07:28:06.677Z,5.45
2022-11-08T07:30:35.181Z,5.22
2022-11-08T07:33:01.785Z,4.70
2022-11-08T07:35:28.302Z,4.70
2022-11-08T07:37:55.378Z,4.63
2022-11-08T07:40:33.351Z,5.40
2022-11-08T07:43:16.740Z,4.93
2022-11-08T07:45:50.014Z,4.80
2022-11-08T07:48:16.478Z,4.45
2022-11-08T07:50:43.237Z,4.65
2022-11-08T07:53:12.141Z,5.25
2022-11-08T07:55:40.190Z,4.60
2022-11-08T07:58:08.530Z,5.40
2022-11-08T08:00:38.459Z,4.57
2022-11-08T08:03:07.442Z,5.50
2022-11-08T08:05:37.658Z,5.75
2022-11-08T08:08:10.900Z,5.53
2022-11-08T08:10:37.457Z,5.35
2022-11-08T08:13:05.133Z,4.88
2022-11-08T08:15:32.394Z,5.13
2022-11-08T08:18:06.332Z,4.70
2022-11-08T08:20:33.513Z,4.40
2022-11-08T08:23:00.700Z,4.97
2022-11-08T08:25:28.981Z,4.25
2022-11-08T08:27:57.631Z,3.92
2022-11-08T08:30:25.025Z,3.90
2022-11-08T08:33:08.394Z,4.05
2022-11-08T08:35:43.430Z,4.07
2022-11-08T08:38:11.907Z,3.67
2022-11-08T08:40:40.631Z,3.75
2022-11-08T08:43:07.423Z,3.78
2022-11-08T08:45:34.934Z,3.50
2022-11-08T08:48:06.219Z,3.10
2022-11-08T08:50:34.901Z,3.65
2022-11-08T08:53:04.076Z,3.45
2022-11-08T08:55:31.098Z,3.40
2022-11-08T08:58:05.991Z,4.00
2022-11-08T09:03:30.090Z,3.63
2022-11-08T09:05:58.691Z,3.50
2022-11-08T09:08:25.916Z,3.53
2022-11-08T09:10:58.674Z,4.03
2022-11-08T09:13:26.976Z,3.85
2022-11-08T09:15:55.116Z,3.58
2022-11-08T09:18:23.806Z,3.67
2022-11-08T09:20:50.394Z,3.63
2022-11-08T09:23:17.890Z,4.07
2022-11-08T09:25:51.351Z,3.67
2022-11-08T09:28:24.953Z,3.47
2022-11-08T09:30:58.261Z,3.40
2022-11-08T09:35:58.827Z,3.42
2022-11-08T09:38:25.562Z,3.65
2022-11-08T09:41:15.323Z,3.38
2022-11-08T09:44:28.741Z,3.40
2022-11-08T09:47:04.604Z,3.72
2022-11-08T09:52:10.032Z,3.67
2022-11-08T09:54:46.796Z,3.35
2022-11-08T09:57:23.184Z,3.72
2022-11-08T09:59:56.266Z,3.20
2022-11-08T10:02:24.287Z,3.60
2022-11-08T10:05:09.587Z,3.13
2022-11-08T10:07:44.982Z,3.33
2022-11-08T10:10:36.398Z,3.55
2022-11-08T10:13:41.512Z,3.22
2022-11-08T10:16:38.677Z,3.60
2022-11-08T10:19:35.682Z,3.20
2022-11-08T10:22:18.480Z,3.10
2022-11-08T10:24:53.194Z,3.50
2022-11-08T10:27:32.558Z,3.15
2022-11-08T10:30:03.445Z,3.20
2022-11-08T10:32:32.453Z,3.55
2022-11-08T10:35:16.166Z,3.45
2022-11-08T10:37:44.919Z,3.40
2022-11-08T10:40:25.507Z,3.40
2022-11-08T10:43:04.348Z,3.90
2022-11-08T10:45:42.490Z,3.42
2022-11-08T10:48:12.100Z,3.38
2022-11-08T10:50:51.610Z,3.22
2022-11-08T10:53:21.112Z,3.80
2022-11-08T10:55:55.213Z,3.58
2022-11-08T10:58:42.036Z,3.33
2022-11-08T11:01:27.181Z,3.17
2022-11-08T11:03:54.051Z,3.60
2022-11-08T11:06:33.757Z,3.00
2022-11-08T11:09:02.951Z,3.17
2022-11-08T11:11:38.392Z,3.55
2022-11-08T11:14:16.612Z,3.53
2022-11-08T11:17:03.740Z,3.53
2022-11-08T11:19:30.602Z,3.30
2022-11-08T11:22:03.745Z,3.45
2022-11-08T11:24:32.965Z,3.03
2022-11-08T11:27:03.442Z,3.33
2022-11-08T11:29:36.698Z,3.40
2022-11-08T11:32:23.379Z,3.53
2022-11-08T11:35:04.285Z,3.03
2022-11-08T11:37:45.959Z,3.90
2022-11-08T11:40:26.602Z,3.60
2022-11-08T11:43:24.078Z,3.58
2022-11-08T11:46:00.432Z,3.65
2022-11-08T11:48:38.575Z,3.70
2022-11-08T11:51:07.033Z,3.78
2022-11-08T11:53:38.819Z,3.42
2022-11-08T11:56:29.309Z,3.20
2022-11-08T11:59:22.553Z,3.33
2022-11-08T12:02:13.422Z,3.95
2022-11-08T12:05:18.715Z,3.40
2022-11-08T12:08:19.128Z,3.65
2022-11-08T12:10:52.057Z,3.47
2022-11-08T12:13:31.783Z,3.20
2022-11-08T12:16:04.582Z,3.58
2022-11-08T12:19:13.655Z,3.47
2022-11-08T12:22:04.801Z,3.28
2022-11-08T12:25:10.682Z,3.33
2022-11-08T12:27:58.190Z,3.45
2022-11-08T12:30:54.422Z,3.20
2022-11-08T12:33:48.558Z,2.80
2022-11-08T12:36:19.745Z,3.08
2022-11-08T12:39:28.131Z,3.33
2022-11-08T12:42:00.744Z,3.40
2022-11-08T12:44:38.758Z,3.40
2022-11-08T12:47:23.957Z,3.22
2022-11-08T12:50:02.787Z,3.47
2022-11-08T12:52:46.201Z,3.10
2022-11-08T12:55:36.849Z,3.22
2022-11-08T12:58:30.370Z,3.10
2022-11-08T13:01:04.817Z,3.35
2022-11-08T13:06:50.578Z,3.50
2022-11-08T13:09:38.897Z,3.47
2022-11-08T13:12:26.405Z,3.40
2022-11-08T13:14:53.122Z,3.58
2022-11-08T13:17:26.327Z,3.67
2022-11-08T13:19:58.508Z,3.00
2022-11-08T13:24:59.116Z,3.28
2022-11-08T13:27:36.727Z,3.38
2022-11-08T13:30:25.177Z,3.42
2022-11-08T13:32:59.645Z,3.47
2022-11-08T13:35:46.316Z,3.42
2022-11-08T13:38:24.657Z,3.28
2022-11-08T13:41:08.546Z,3.50
2022-11-08T13:43:35.841Z,2.80
2022-11-08T13:46:22.542Z,3.33
2022-11-08T13:48:57.897Z,3.30
2022-11-08T13:51:33.519Z,3.38
2022-11-08T13:54:22.791Z,3.45
2022-11-08T13:56:55.635Z,3.25
2022-11-08T13:59:31.419Z,2.90
2022-11-08T14:04:29.897Z,3.25
2022-11-08T14:07:14.515Z,3.00
2022-11-08T14:10:14.563Z,3.60
2022-11-08T14:13:08.337Z,3.50
2022-11-08T14:15:46.492Z,3.25
2022-11-08T14:18:28.171Z,3.22
2022-11-08T14:20:56.248Z,2.80
2022-11-08T14:23:28.926Z,2.95
2022-11-08T14:26:07.276Z,3.08
2022-11-08T14:28:45.578Z,2.90
2022-11-08T14:31:33.346Z,2.85
2022-11-08T14:34:01.138Z,3.13
2022-11-08T14:36:30.137Z,2.90
2022-11-08T14:39:13.736Z,2.75
2022-11-08T14:41:45.585Z,2.67
2022-11-08T14:44:16.377Z,2.60
2022-11-08T14:46:43.301Z,3.10
2022-11-08T14:49:22.202Z,2.90
2022-11-08T14:52:07.617Z,2.90
2022-11-08T14:54:46.343Z,2.78
2022-11-08T14:57:30.273Z,3.05
2022-11-08T15:00:09.630Z,2.90
2022-11-08T15:02:36.624Z,3.08
2022-11-08T15:05:03.629Z,3.03
2022-11-08T15:07:30.462Z,2.67
2022-11-08T15:09:57.402Z,3.10
2022-11-08T15:12:25.065Z,3.30
2022-11-08T15:14:59.318Z,3.20
2022-11-08T15:17:37.646Z,3.00
2022-11-08T15:20:07.896Z,3.17
2022-11-08T15:22:36.296Z,3.20
2022-11-08T15:25:20.381Z,3.10
2022-11-08T15:27:48.284Z,3.20
2022-11-08T15:30:20.386Z,3.08
2022-11-08T15:32:49.780Z,3.35
2022-11-08T15:35:38.203Z,2.92
2022-11-08T15:38:23.641Z,3.03
2022-11-08T15:40:53.004Z,2.90
2022-11-08T15:43:33.307Z,3.03
2022-11-08T15:46:03.584Z,2.90
2022-11-08T15:48:30.645Z,3.03
2022-11-08T15:50:58.336Z,3.38
2022-11-08T15:53:26.954Z,3.10
2022-11-08T15:56:06.999Z,2.70
2022-11-08T15:58:36.409Z,3.08
2022-11-08T16:01:06.766Z,3.22
2022-11-08T16:03:34.738Z,3.10
2022-11-08T16:06:01.487Z,3.40
2022-11-08T16:08:28.514Z,3.22
2022-11-08T16:11:00.340Z,3.38
2022-11-08T16:13:30.073Z,3.10
2022-11-08T16:15:57.758Z,3.70
2022-11-08T16:18:34.239Z,3.45
2022-11-08T16:21:01.161Z,3.30
2022-11-08T16:23:27.848Z,3.20
2022-11-08T16:25:58.077Z,3.30
2022-11-08T16:28:29.862Z,3.67
2022-11-08T16:30:57.066Z,3.33
2022-11-08T16:33:28.319Z,3.13
2022-11-08T16:35:57.701Z,3.75
2022-11-08T16:38:28.126Z,3.33
2022-11-08T16:40:56.636Z,3.38
2022-11-08T16:43:24.906Z,3.30
2022-11-08T16:46:05.087Z,3.38
2022-11-08T16:48:39.304Z,3.53
2022-11-08T16:51:16.617Z,3.42
2022-11-08T16:53:47.617Z,3.30
2022-11-08T16:56:14.876Z,3.35
2022-11-08T16:58:42.249Z,3.40
2022-11-08T17:01:18.463Z,3.20
2022-11-08T17:03:45.202Z,3.17
2022-11-08T17:06:17.998Z,3.47
2022-11-08T17:08:47.348Z,3.53
2022-11-08T17:11:19.673Z,3.92
2022-11-08T17:13:52.888Z,3.75
2022-11-08T17:16:20.199Z,4.20
2022-11-08T17:18:52.269Z,4.20
2022-11-08T17:24:08.387Z,3.22
2022-11-08T17:26:39.644Z,3.67
2022-11-08T17:29:08.067Z,3.95
2022-11-08T17:31:34.593Z,3.17
2022-11-08T17:34:01.311Z,3.40
2022-11-08T17:36:27.787Z,3.58
2022-11-08T17:38:54.279Z,2.75
2022-11-08T17:41:27.457Z,2.95
2022-11-08T17:43:53.994Z,3.70
2022-11-08T17:46:20.471Z,3.15
2022-11-08T17:48:49.409Z,3.40
2022-11-08T17:51:16.629Z,3.38
2022-11-08T17:53:45.366Z,3.38
2022-11-08T17:56:14.344Z,3.45
2022-11-08T17:58:40.957Z,3.42
2022-11-08T18:01:08.027Z,3.10
2022-11-08T18:03:37.425Z,3.13
2022-11-08T18:06:12.049Z,3.63
2022-11-08T18:08:41.436Z,3.60
2022-11-08T18:11:08.558Z,3.40
2022-11-08T18:13:35.540Z,3.95
2022-11-08T18:16:11.240Z,3.50
2022-11-08T18:18:38.132Z,3.25
2022-11-08T18:21:07.849Z,3.30
2022-11-08T18:23:36.566Z,3.00
2022-11-08T18:26:03.142Z,2.88
2022-11-08T18:28:30.488Z,3.20
2022-11-08T18:31:14.232Z,2.78
2022-11-08T18:33:41.432Z,3.25
2022-11-08T18:36:11.166Z,3.00
2022-11-08T18:38:46.297Z,2.90
2022-11-08T18:41:15.293Z,3.40
2022-11-08T18:43:42.215Z,3.05
2022-11-08T18:46:15.680Z,3.67
2022-11-08T18:48:42.617Z,3.30
2022-11-08T18:51:11.766Z,2.97
2022-11-08T18:53:41.350Z,3.35
2022-11-08T18:56:09.384Z,3.35
2022-11-08T18:58:38.323Z,2.88
2022-11-08T19:01:05.957Z,2.78
2022-11-08T19:03:33.382Z,3.10
2022-11-08T19:05:59.891Z,3.05
2022-11-08T19:08:28.749Z,3.80
2022-11-08T19:10:57.740Z,4.85
2022-11-08T19:13:26.075Z,5.05
2022-11-08T19:16:19.170Z,5.50
2022-11-08T19:18:46.907Z,4.50
2022-11-08T19:21:15.003Z,4.93
2022-11-08T19:23:50.452Z,4.05
2022-11-08T19:26:22.196Z,3.67
2022-11-08T19:28:55.160Z,3.55
2022-11-08T19:31:23.435Z,3.83
2022-11-08T19:33:52.383Z,3.58
2022-11-08T19:36:21.911Z,3.15
2022-11-08T19:38:48.552Z,2.90
2022-11-08T19:41:18.434Z,3.00
2022-11-08T19:43:48.465Z,3.63
2022-11-08T19:46:28.915Z,3.90
2022-11-08T19:49:02.479Z,3.38
2022-11-08T19:51:31.718Z,3.67
2022-11-08T19:54:01.212Z,3.30
2022-11-08T19:56:49.982Z,3.30
2022-11-08T19:59:17.430Z,3.67
2022-11-08T20:01:44.145Z,3.63
2022-11-08T20:04:12.019Z,3.25
2022-11-08T20:06:39.449Z,3.35
2022-11-08T20:09:06.488Z,3.33
2022-11-08T20:11:36.497Z,3.28
2022-11-08T20:14:04.439Z,3.20
2022-11-08T20:16:34.564Z,2.55
2022-11-08T20:19:07.245Z,3.15
2022-11-08T20:21:34.245Z,3.22
2022-11-08T20:24:03.214Z,3.13
2022-11-08T20:26:29.770Z,4.15
2022-11-08T20:28:57.242Z,3.08
2022-11-08T20:31:29.124Z,3.20
2022-11-08T20:33:56.210Z,2.90
2022-11-08T20:36:24.511Z,3.47
2022-11-08T20:39:02.217Z,3.63
2022-11-08T20:41:37.270Z,3.10
2022-11-08T20:44:04.694Z,3.20
2022-11-08T20:46:32.482Z,3.25
2022-11-08T20:49:00.863Z,3.03
2022-11-08T20:51:29.221Z,2.95
2022-11-08T20:53:56.688Z,3.15
2022-11-08T20:56:24.124Z,2.83
2022-11-08T20:58:52.096Z,2.97
2022-11-08T21:01:24.176Z,3.08
2022-11-08T21:03:52.602Z,3.17
2022-11-08T21:06:23.894Z,3.13
2022-11-08T21:09:01.873Z,3.38
2022-11-08T21:11:39.823Z,2.90
2022-11-08T21:14:06.395Z,3.05
2022-11-08T21:16:47.382Z,2.88
2022-11-08T21:19:22.852Z,3.22
2022-11-08T21:21:51.330Z,3.40
2022-11-08T21:24:17.826Z,3.00
2022-11-08T21:26:46.112Z,2.85
2022-11-08T21:29:12.716Z,4.03
2022-11-08T21:31:39.281Z,3.63
2022-11-08T21:34:17.552Z,3.90
2022-11-08T21:36:45.980Z,4.68
2022-11-08T21:39:12.501Z,4.55
2022-11-08T21:41:40.692Z,4.00
2022-11-08T21:44:07.326Z,4.25
2022-11-08T21:46:34.137Z,4.43
2022-11-08T21:49:02.216Z,4.28
2022-11-08T21:51:29.684Z,4.35
2022-11-08T21:53:58.049Z,3.95
2022-11-08T21:56:28.413Z,4.10
2022-11-08T21:58:56.873Z,4.30
2022-11-08T22:01:29.688Z,3.90
2022-11-08T22:03:57.695Z,3.78
2022-11-08T22:06:24.201Z,3.70
2022-11-08T22:08:52.937Z,3.88
2022-11-08T22:11:25.653Z,3.72
2022-11-08T22:13:52.273Z,3.30
2022-11-08T22:16:18.709Z,3.83
2022-11-08T22:21:44.538Z,3.40
2022-11-08T22:24:17.178Z,3.70
2022-11-08T22:26:44.294Z,3.67
2022-11-08T22:29:12.759Z,3.65
2022-11-08T22:31:39.937Z,3.60
2022-11-08T22:34:08.565Z,3.58
2022-11-08T22:36:44.034Z,3.40
2022-11-08T22:39:15.754Z,3.65
2022-11-08T22:41:48.164Z,3.70
2022-11-08T22:44:21.276Z,3.63
2022-11-08T22:46:48.454Z,3.00
2022-11-08T22:49:15.915Z,3.88
2022-11-08T22:51:43.308Z,3.83
2022-11-08T22:54:09.966Z,3.65
2022-11-08T22:56:38.397Z,3.55
2022-11-08T22:59:05.064Z,3.58
2022-11-08T23:01:32.173Z,3.30
2022-11-08T23:04:00.411Z,3.90
2022-11-08T23:06:26.962Z,3.05
2022-11-08T23:08:53.474Z,3.40
2022-11-08T23:11:38.934Z,3.60
2022-11-08T23:14:23.997Z,3.27
2022-11-08T23:16:59.013Z,3.40
2022-11-08T23:19:51.401Z,3.40
2022-11-08T23:22:40.667Z,3.20
2022-11-08T23:25:07.673Z,3.28
2022-11-08T23:27:54.554Z,3.10
2022-11-08T23:30:39.772Z,3.25
2022-11-08T23:33:15.270Z,3.08
2022-11-08T23:36:03.768Z,3.30
2022-11-08T23:38:35.462Z,3.50
2022-11-08T23:41:20.444Z,3.33
2022-11-08T23:44:07.776Z,3.70
2022-11-08T23:46:34.225Z,3.38
2022-11-08T23:49:01.367Z,3.47
2022-11-08T23:51:29.651Z,3.20
2022-11-08T23:53:56.277Z,3.38
2022-11-08T23:56:24.611Z,3.15
2022-11-08T23:58:56.345Z,2.80
